Time;durP1;ratioP1;P1;durP2;ratioP2;P2;SDS_P1;SDS_P2;PMS_P1;PMS_P2;Temp;Humidity;BMP_temperature;BMP_pressure;BME280_temperature;BME280_humidity;BME280_pressure;Samples;Min_cycle;Max_cycle;Signal;HPM_P1;HPM_P2
2023/04/18 00:02:07;;;;;;;1.98;1.75;;;;;;;;;;4903082;29;20054;-58
2023/04/18 00:04:36;;;;;;;10.90;1.52;;;;;;;;;;4902889;29;20452;-57
2023/04/18 00:07:05;;;;;;;1.88;1.02;;;;;;;;;;4905327;29;20501;-59
2023/04/18 00:09:33;;;;;;;2.13;1.00;;;;;;;;;;4906083;29;20541;-61
2023/04/18 00:12:03;;;;;;;2.92;1.33;;;;;;;;;;4905136;29;20368;-58
2023/04/18 00:14:45;;;;;;;4.10;1.10;;;;;;;;;;4894434;29;20409;-57
2023/04/18 00:17:15;;;;;;;2.60;1.48;;;;;;;;;;4906210;29;20481;-61
2023/04/18 00:19:43;;;;;;;1.42;0.68;;;;;;;;;;4897794;29;20056;-62
2023/04/18 00:22:12;;;;;;;1.38;1.00;;;;;;;;;;4902041;29;20436;-59
2023/04/18 00:24:41;;;;;;;3.10;1.30;;;;;;;;;;4904718;29;20056;-63
2023/04/18 00:27:10;;;;;;;1.88;0.85;;;;;;;;;;4907850;29;20055;-59
2023/04/18 00:29:39;;;;;;;4.07;2.17;;;;;;;;;;4908500;29;20040;-57
2023/04/18 00:32:07;;;;;;;3.55;1.17;;;;;;;;;;4904348;29;20416;-59
2023/04/18 00:34:36;;;;;;;2.63;1.10;;;;;;;;;;4904484;29;20053;-57
2023/04/18 00:37:04;;;;;;;5.07;1.25;;;;;;;;;;4904243;29;20044;-58
2023/04/18 00:39:33;;;;;;;3.33;1.30;;;;;;;;;;4901011;29;20697;-58
2023/04/18 00:42:02;;;;;;;1.02;0.75;;;;;;;;;;4902526;29;20060;-57
2023/04/18 00:44:32;;;;;;;2.15;0.88;;;;;;;;;;4903116;29;20143;-57
2023/04/18 00:47:00;;;;;;;3.05;1.55;;;;;;;;;;4904227;29;20127;-58
2023/04/18 00:49:29;;;;;;;2.13;1.25;;;;;;;;;;4901789;29;20537;-60
2023/04/18 00:51:57;;;;;;;2.22;1.25;;;;;;;;;;4903371;29;20075;-57
2023/04/18 00:54:27;;;;;;;3.15;1.55;;;;;;;;;;4904337;29;20135;-59
2023/04/18 00:56:55;;;;;;;2.40;1.15;;;;;;;;;;4899085;29;20152;-58
2023/04/18 00:59:24;;;;;;;3.30;2.15;;;;;;;;;;4899731;29;20506;-58
2023/04/18 01:01:53;;;;;;;2.35;1.38;;;;;;;;;;4903322;29;20064;-58
2023/04/18 01:04:22;;;;;;;1.65;1.10;;;;;;;;;;4925442;23;20083;-61
2023/04/18 01:06:50;;;;;;;3.10;1.48;;;;;;;;;;4935148;29;20048;-60
2023/04/18 01:09:19;;;;;;;4.78;1.40;;;;;;;;;;4936784;29;20102;-62
2023/04/18 01:11:48;;;;;;;2.97;1.35;;;;;;;;;;4936687;29;20055;-62
2023/04/18 01:14:16;;;;;;;1.73;1.55;;;;;;;;;;4935603;29;20052;-61
2023/04/18 01:16:44;;;;;;;2.70;1.50;;;;;;;;;;4936449;29;20075;-61
2023/04/18 01:19:15;;;;;;;5.55;1.65;;;;;;;;;;4935850;29;20083;-61
2023/04/18 01:21:44;;;;;;;3.35;1.42;;;;;;;;;;4936358;29;20441;-61
2023/04/18 01:24:14;;;;;;;4.88;1.63;;;;;;;;;;4936354;29;20055;-60
2023/04/18 01:26:44;;;;;;;3.28;1.27;;;;;;;;;;4936137;29;20054;-61
2023/04/18 01:29:13;;;;;;;3.30;1.55;;;;;;;;;;4935346;29;20051;-62
2023/04/18 01:31:41;;;;;;;3.22;1.60;;;;;;;;;;4936143;29;20071;-60
2023/04/18 01:34:10;;;;;;;2.63;2.05;;;;;;;;;;4935970;29;20074;-61
2023/04/18 01:36:39;;;;;;;3.58;1.65;;;;;;;;;;4934123;29;20126;-62
2023/04/18 01:39:08;;;;;;;3.22;1.70;;;;;;;;;;4934947;29;20050;-61
2023/04/18 01:41:38;;;;;;;4.90;1.67;;;;;;;;;;4929879;29;20059;-61
2023/04/18 01:44:06;;;;;;;4.60;2.38;;;;;;;;;;4931068;29;20054;-60
2023/04/18 01:46:34;;;;;;;5.32;1.75;;;;;;;;;;4930643;28;20062;-61
2023/04/18 01:49:03;;;;;;;4.60;1.90;;;;;;;;;;4926919;29;20106;-61
2023/04/18 01:51:31;;;;;;;4.85;2.08;;;;;;;;;;4931071;29;20051;-62
2023/04/18 01:53:59;;;;;;;2.28;1.35;;;;;;;;;;4928443;29;20042;-61
2023/04/18 01:56:28;;;;;;;6.53;1.95;;;;;;;;;;4929744;28;20178;-60
2023/04/18 01:58:57;;;;;;;4.38;1.67;;;;;;;;;;4928025;29;20044;-61
2023/04/18 02:01:26;;;;;;;6.10;2.20;;;;;;;;;;4930496;29;20404;-61
2023/04/18 02:03:54;;;;;;;3.50;1.65;;;;;;;;;;4930786;29;20078;-60
2023/04/18 02:06:23;;;;;;;8.65;3.45;;;;;;;;;;4931530;29;20043;-60
2023/04/18 02:08:51;;;;;;;5.78;2.15;;;;;;;;;;4928246;29;20102;-61
2023/04/18 02:11:19;;;;;;;2.90;1.85;;;;;;;;;;4929809;29;20065;-60
2023/04/18 02:13:48;;;;;;;3.25;1.73;;;;;;;;;;4926596;29;20047;-61
2023/04/18 02:16:17;;;;;;;4.40;1.85;;;;;;;;;;4927903;28;20052;-61
2023/04/18 02:18:46;;;;;;;3.10;2.03;;;;;;;;;;4932936;29;20524;-62
2023/04/18 02:21:14;;;;;;;6.38;2.78;;;;;;;;;;4931605;29;20059;-62
2023/04/18 02:23:43;;;;;;;2.85;1.40;;;;;;;;;;4932490;29;20062;-60
2023/04/18 02:26:11;;;;;;;6.43;3.70;;;;;;;;;;4931189;29;20054;-61
2023/04/18 02:28:39;;;;;;;6.22;2.20;;;;;;;;;;4934197;29;20065;-61
2023/04/18 02:31:13;;;;;;;4.57;2.08;;;;;;;;;;4936493;29;20427;-61
2023/04/18 02:33:43;;;;;;;5.55;2.10;;;;;;;;;;4931334;29;20051;-60
2023/04/18 02:36:12;;;;;;;6.28;2.35;;;;;;;;;;4927915;29;20056;-61
2023/04/18 02:38:40;;;;;;;5.72;2.20;;;;;;;;;;4936428;29;20142;-61
2023/04/18 02:41:13;;;;;;;3.67;2.25;;;;;;;;;;4935696;29;20087;-60
2023/04/18 02:43:42;;;;;;;5.03;2.08;;;;;;;;;;4929817;29;20075;-62
2023/04/18 02:46:10;;;;;;;5.93;2.92;;;;;;;;;;4932556;28;20081;-61
2023/04/18 02:48:39;;;;;;;4.05;2.65;;;;;;;;;;4936400;29;20070;-61
2023/04/18 02:51:09;;;;;;;4.55;2.40;;;;;;;;;;4931169;29;20241;-61
2023/04/18 02:53:37;;;;;;;5.55;1.90;;;;;;;;;;4933520;29;20526;-63
2023/04/18 02:56:06;;;;;;;5.47;2.95;;;;;;;;;;4931081;28;20881;-63
2023/04/18 02:58:35;;;;;;;5.90;3.90;;;;;;;;;;4937649;29;20051;-61
2023/04/18 03:01:03;;;;;;;5.90;2.38;;;;;;;;;;4933998;29;20054;-61
2023/04/18 03:03:31;;;;;;;4.55;1.77;;;;;;;;;;4929128;29;20102;-62
2023/04/18 03:06:00;;;;;;;5.78;2.72;;;;;;;;;;4933211;28;20122;-61
2023/04/18 03:08:30;;;;;;;12.98;2.95;;;;;;;;;;4936407;29;20091;-60
2023/04/18 03:10:58;;;;;;;5.10;1.92;;;;;;;;;;4932920;29;20242;-62
2023/04/18 03:13:26;;;;;;;6.43;3.42;;;;;;;;;;4933422;29;20517;-59
2023/04/18 03:15:55;;;;;;;8.75;2.63;;;;;;;;;;4934081;29;20078;-58
2023/04/18 03:18:23;;;;;;;8.05;3.55;;;;;;;;;;4932575;29;20057;-58
2023/04/18 03:20:51;;;;;;;6.28;2.47;;;;;;;;;;4929334;29;20170;-58
2023/04/18 03:23:20;;;;;;;10.63;3.92;;;;;;;;;;4935345;29;20267;-58
2023/04/18 03:25:50;;;;;;;8.07;3.47;;;;;;;;;;4933516;28;20051;-59
2023/04/18 03:28:18;;;;;;;7.07;3.13;;;;;;;;;;4934781;29;20438;-59
2023/04/18 03:30:47;;;;;;;8.50;3.50;;;;;;;;;;4936028;29;20053;-60
2023/04/18 03:33:15;;;;;;;8.20;2.05;;;;;;;;;;4931975;29;20047;-59
2023/04/18 03:35:44;;;;;;;10.27;3.65;;;;;;;;;;4934226;28;20055;-58
2023/04/18 03:38:12;;;;;;;7.07;3.17;;;;;;;;;;4930321;29;20054;-58
2023/04/18 03:40:43;;;;;;;8.93;3.85;;;;;;;;;;4933631;29;20051;-59
2023/04/18 03:43:12;;;;;;;5.82;2.53;;;;;;;;;;4935065;28;20051;-58
2023/04/18 03:45:41;;;;;;;8.35;3.83;;;;;;;;;;4933690;28;20063;-59
2023/04/18 03:48:09;;;;;;;7.15;3.40;;;;;;;;;;4930915;29;20043;-58
2023/04/18 03:50:37;;;;;;;4.63;2.67;;;;;;;;;;4930996;29;20059;-58
2023/04/18 03:53:06;;;;;;;6.53;2.42;;;;;;;;;;4931455;29;20360;-59
2023/04/18 03:55:34;;;;;;;13.13;5.00;;;;;;;;;;4933149;28;20051;-59
2023/04/18 03:58:02;;;;;;;10.18;3.40;;;;;;;;;;4929732;29;20051;-58
2023/04/18 04:00:32;;;;;;;9.45;3.67;;;;;;;;;;4932339;29;20055;-58
2023/04/18 04:03:00;;;;;;;8.93;3.20;;;;;;;;;;4935586;29;20519;-59
2023/04/18 04:05:29;;;;;;;7.57;3.17;;;;;;;;;;4930570;28;20086;-59
2023/04/18 04:07:57;;;;;;;9.98;4.07;;;;;;;;;;4931911;29;20171;-58
2023/04/18 04:10:25;;;;;;;7.30;2.70;;;;;;;;;;4929013;29;20058;-58
2023/04/18 04:12:54;;;;;;;6.15;3.33;;;;;;;;;;4930107;28;20046;-59
2023/04/18 04:15:22;;;;;;;6.50;2.83;;;;;;;;;;4929397;28;20056;-59
2023/04/18 04:17:52;;;;;;;12.02;3.42;;;;;;;;;;4933243;29;20069;-59
2023/04/18 04:20:23;;;;;;;11.30;4.13;;;;;;;;;;4936717;29;21157;-58
2023/04/18 04:22:52;;;;;;;6.65;2.47;;;;;;;;;;4931410;29;20074;-59
2023/04/18 04:25:23;;;;;;;9.07;3.10;;;;;;;;;;4931080;29;20111;-59
2023/04/18 04:27:52;;;;;;;7.03;3.90;;;;;;;;;;4932961;29;20051;-59
2023/04/18 04:30:21;;;;;;;8.23;3.40;;;;;;;;;;4929790;29;20102;-59
2023/04/18 04:32:49;;;;;;;5.28;3.35;;;;;;;;;;4927007;29;20085;-58
2023/04/18 04:35:19;;;;;;;6.35;2.60;;;;;;;;;;4935329;29;20051;-58
2023/04/18 04:37:47;;;;;;;7.30;2.88;;;;;;;;;;4923569;29;20138;-58
2023/04/18 04:40:16;;;;;;;12.80;4.53;;;;;;;;;;4931801;29;20408;-58
2023/04/18 04:42:44;;;;;;;8.95;3.13;;;;;;;;;;4931602;29;20047;-59
2023/04/18 04:45:13;;;;;;;9.55;4.18;;;;;;;;;;4924678;29;20066;-58
2023/04/18 04:47:41;;;;;;;5.45;2.72;;;;;;;;;;4925104;29;20055;-58
2023/04/18 04:50:13;;;;;;;10.05;3.80;;;;;;;;;;4931297;29;20047;-58
2023/04/18 04:52:43;;;;;;;9.15;3.03;;;;;;;;;;4924166;29;20066;-61
2023/04/18 04:55:11;;;;;;;10.68;3.65;;;;;;;;;;4929430;29;20389;-61
2023/04/18 04:57:40;;;;;;;6.32;2.42;;;;;;;;;;4926896;29;20056;-61
2023/04/18 05:00:09;;;;;;;8.70;3.53;;;;;;;;;;4933880;29;20054;-61
2023/04/18 05:02:37;;;;;;;4.97;2.97;;;;;;;;;;4931867;29;20431;-61
2023/04/18 05:05:06;;;;;;;5.97;2.63;;;;;;;;;;4932657;29;20059;-62
2023/04/18 05:07:34;;;;;;;6.80;2.55;;;;;;;;;;4926671;28;20531;-61
2023/04/18 05:10:05;;;;;;;9.23;3.60;;;;;;;;;;4932619;29;20055;-60
2023/04/18 05:12:34;;;;;;;10.02;3.60;;;;;;;;;;4930188;29;20083;-61
2023/04/18 05:15:02;;;;;;;8.30;3.42;;;;;;;;;;4929578;29;20074;-60
2023/04/18 05:17:30;;;;;;;12.05;4.40;;;;;;;;;;4926905;28;20151;-61
2023/04/18 05:19:59;;;;;;;8.93;3.25;;;;;;;;;;4927384;29;20075;-61
2023/04/18 05:22:27;;;;;;;12.25;4.32;;;;;;;;;;4929677;29;20178;-61
2023/04/18 05:24:55;;;;;;;12.38;3.35;;;;;;;;;;4937920;29;20528;-60
2023/04/18 05:27:25;;;;;;;12.10;3.22;;;;;;;;;;4929026;28;20055;-61
2023/04/18 05:29:53;;;;;;;9.43;3.45;;;;;;;;;;4932153;29;20062;-62
2023/04/18 05:32:22;;;;;;;8.90;2.92;;;;;;;;;;4930582;29;20051;-59
2023/04/18 05:34:51;;;;;;;8.02;3.28;;;;;;;;;;4931810;29;21361;-58
2023/04/18 05:37:19;;;;;;;12.10;4.32;;;;;;;;;;4931956;29;20138;-59
2023/04/18 05:39:47;;;;;;;4.82;3.70;;;;;;;;;;4934042;29;20433;-61
2023/04/18 05:42:16;;;;;;;8.00;3.67;;;;;;;;;;4928120;29;20130;-60
2023/04/18 05:44:45;;;;;;;8.25;3.00;;;;;;;;;;4932722;29;20526;-59
2023/04/18 05:47:13;;;;;;;8.95;3.80;;;;;;;;;;4931441;28;20058;-59
2023/04/18 05:49:42;;;;;;;7.75;3.03;;;;;;;;;;4932790;29;20065;-60
2023/04/18 05:52:10;;;;;;;6.50;3.70;;;;;;;;;;4929609;28;20530;-59
2023/04/18 05:54:39;;;;;;;10.85;3.83;;;;;;;;;;4932153;29;20050;-59
2023/04/18 05:57:08;;;;;;;9.10;2.95;;;;;;;;;;4933200;29;21034;-59
2023/04/18 05:59:36;;;;;;;9.50;3.22;;;;;;;;;;4933470;29;20055;-59
2023/04/18 06:02:11;;;;;;;8.63;4.15;;;;;;;;;;4936175;29;20051;-59
2023/04/18 06:04:40;;;;;;;7.95;2.80;;;;;;;;;;4930380;29;20065;-58
2023/04/18 06:07:10;;;;;;;8.98;3.33;;;;;;;;;;4930677;28;20134;-59
2023/04/18 06:09:38;;;;;;;8.52;2.60;;;;;;;;;;4933598;29;20138;-59
2023/04/18 06:12:06;;;;;;;7.22;2.60;;;;;;;;;;4932913;29;20493;-59
2023/04/18 06:14:35;;;;;;;12.38;3.75;;;;;;;;;;4931000;29;20452;-59
2023/04/18 06:17:03;;;;;;;11.93;4.32;;;;;;;;;;4931269;29;20070;-61
2023/04/18 06:19:33;;;;;;;10.57;3.60;;;;;;;;;;4931820;29;20058;-61
2023/04/18 06:22:01;;;;;;;7.03;3.08;;;;;;;;;;4933142;29;20051;-59
2023/04/18 06:24:29;;;;;;;9.20;3.05;;;;;;;;;;4934296;29;20061;-59
2023/04/18 06:26:58;;;;;;;6.38;3.50;;;;;;;;;;4937811;29;20090;-59
2023/04/18 06:29:29;;;;;;;7.93;2.95;;;;;;;;;;4932792;29;20050;-60
2023/04/18 06:31:57;;;;;;;14.20;3.85;;;;;;;;;;4930069;29;20039;-60
2023/04/18 06:34:26;;;;;;;6.57;2.75;;;;;;;;;;4932890;29;20048;-59
2023/04/18 06:36:56;;;;;;;13.70;3.75;;;;;;;;;;4931566;28;20519;-59
2023/04/18 06:39:24;;;;;;;6.53;3.10;;;;;;;;;;4934634;29;20523;-59
2023/04/18 06:41:52;;;;;;;6.68;2.80;;;;;;;;;;4932004;29;20523;-60
2023/04/18 06:44:21;;;;;;;7.75;2.72;;;;;;;;;;4933863;29;20043;-59
2023/04/18 06:46:49;;;;;;;9.48;3.40;;;;;;;;;;4935023;29;21161;-59
2023/04/18 06:49:18;;;;;;;5.05;3.00;;;;;;;;;;4931772;29;20054;-60
2023/04/18 06:51:47;;;;;;;8.82;3.65;;;;;;;;;;4930224;29;20043;-60
2023/04/18 06:54:17;;;;;;;9.23;2.97;;;;;;;;;;4931671;29;20058;-60
2023/04/18 06:56:45;;;;;;;4.65;2.47;;;;;;;;;;4930874;29;20055;-59
2023/04/18 06:59:14;;;;;;;14.90;4.18;;;;;;;;;;4934101;29;20074;-60
2023/04/18 07:01:42;;;;;;;5.93;2.67;;;;;;;;;;4933093;29;20047;-60
2023/04/18 07:04:11;;;;;;;13.23;4.65;;;;;;;;;;4932692;29;20079;-60
2023/04/18 07:06:40;;;;;;;7.00;4.10;;;;;;;;;;4934947;29;20050;-60
2023/04/18 07:09:08;;;;;;;8.10;4.50;;;;;;;;;;4932821;29;20052;-59
2023/04/18 07:11:39;;;;;;;13.35;3.40;;;;;;;;;;4934906;29;20578;-59
2023/04/18 07:14:08;;;;;;;5.72;2.45;;;;;;;;;;4936155;29;20040;-60
2023/04/18 07:16:36;;;;;;;8.38;3.05;;;;;;;;;;4932939;28;20048;-59
2023/04/18 07:19:05;;;;;;;10.65;2.78;;;;;;;;;;4932976;29;20047;-60
2023/04/18 07:21:33;;;;;;;8.73;3.53;;;;;;;;;;4935231;29;20047;-59
2023/04/18 07:24:01;;;;;;;4.50;2.42;;;;;;;;;;4931848;29;20044;-59
2023/04/18 07:26:30;;;;;;;7.72;3.30;;;;;;;;;;4938816;28;20519;-59
2023/04/18 07:28:59;;;;;;;6.38;2.88;;;;;;;;;;4938869;29;20141;-58
2023/04/18 07:31:30;;;;;;;6.50;2.35;;;;;;;;;;4937449;29;20056;-59
2023/04/18 07:33:58;;;;;;;6.30;2.60;;;;;;;;;;4938461;29;20468;-58
2023/04/18 07:36:27;;;;;;;8.73;2.75;;;;;;;;;;4935754;29;20051;-59
2023/04/18 07:38:55;;;;;;;5.35;2.35;;;;;;;;;;4934265;29;20098;-59
2023/04/18 07:41:24;;;;;;;10.82;2.75;;;;;;;;;;4936671;29;20462;-59
2023/04/18 07:43:52;;;;;;;4.88;2.85;;;;;;;;;;4936207;29;20050;-59
2023/04/18 07:46:22;;;;;;;6.03;2.35;;;;;;;;;;4935921;28;20046;-59
2023/04/18 07:48:51;;;;;;;7.57;3.15;;;;;;;;;;4935480;29;20056;-59
2023/04/18 07:51:19;;;;;;;5.43;3.25;;;;;;;;;;4936677;29;20047;-59
2023/04/18 07:53:47;;;;;;;11.93;3.38;;;;;;;;;;4934720;29;20477;-61
2023/04/18 07:56:16;;;;;;;5.47;2.70;;;;;;;;;;4936049;29;20063;-59
2023/04/18 07:58:44;;;;;;;6.18;2.35;;;;;;;;;;4935403;29;20063;-59
2023/04/18 08:01:14;;;;;;;6.35;2.40;;;;;;;;;;4932586;29;20044;-59
2023/04/18 08:03:43;;;;;;;5.90;2.42;;;;;;;;;;4935098;29;20071;-59
2023/04/18 08:06:12;;;;;;;5.80;2.55;;;;;;;;;;4935799;28;20606;-60
2023/04/18 08:08:40;;;;;;;6.90;2.78;;;;;;;;;;4939116;29;20048;-59
2023/04/18 08:11:09;;;;;;;5.05;3.17;;;;;;;;;;4937545;29;20050;-61
2023/04/18 08:13:37;;;;;;;8.60;3.15;;;;;;;;;;4939866;29;20139;-62
2023/04/18 08:16:06;;;;;;;7.25;3.65;;;;;;;;;;4931020;29;20136;-61
2023/04/18 08:18:34;;;;;;;10.38;3.25;;;;;;;;;;4938993;29;20067;-60
2023/04/18 08:21:04;;;;;;;15.43;3.67;;;;;;;;;;4935652;29;20051;-59
2023/04/18 08:23:32;;;;;;;8.63;3.70;;;;;;;;;;4935385;29;20048;-60
2023/04/18 08:26:01;;;;;;;10.43;3.78;;;;;;;;;;4931107;29;20059;-59
2023/04/18 08:28:29;;;;;;;5.97;2.78;;;;;;;;;;4937647;29;20623;-61
2023/04/18 08:30:57;;;;;;;6.60;2.97;;;;;;;;;;4938648;29;20057;-60
2023/04/18 08:33:27;;;;;;;5.53;2.85;;;;;;;;;;4931800;29;20130;-60
2023/04/18 08:35:55;;;;;;;9.93;3.65;;;;;;;;;;4930208;29;20047;-60
2023/04/18 08:38:25;;;;;;;11.25;4.30;;;;;;;;;;4932681;29;20060;-60
2023/04/18 08:40:53;;;;;;;5.60;3.13;;;;;;;;;;4934063;29;20421;-59
2023/04/18 08:43:23;;;;;;;8.25;3.47;;;;;;;;;;4932828;29;20215;-60
2023/04/18 08:45:52;;;;;;;11.07;3.08;;;;;;;;;;4928906;28;20055;-60
2023/04/18 08:48:21;;;;;;;10.38;3.85;;;;;;;;;;4937265;29;20513;-60
2023/04/18 08:50:50;;;;;;;7.20;3.17;;;;;;;;;;4927550;29;20044;-59
2023/04/18 08:53:18;;;;;;;7.78;3.20;;;;;;;;;;4936697;29;20048;-60
2023/04/18 08:55:49;;;;;;;6.45;3.72;;;;;;;;;;4932444;29;20433;-59
2023/04/18 08:58:22;;;;;;;6.50;2.10;;;;;;;;;;4930810;29;20051;-60
2023/04/18 09:00:51;;;;;;;4.53;2.03;;;;;;;;;;4931841;29;20046;-61
2023/04/18 09:03:36;;;;;;;8.98;4.00;;;;;;;;;;4934362;29;20051;-60
2023/04/18 09:06:08;;;;;;;6.82;2.42;;;;;;;;;;4932049;29;20134;-60
2023/04/18 09:08:37;;;;;;;5.53;2.22;;;;;;;;;;4931874;29;20146;-60
2023/04/18 09:11:22;;;;;;;6.18;2.13;;;;;;;;;;4931237;29;20520;-60
2023/04/18 09:13:51;;;;;;;7.55;2.88;;;;;;;;;;4936138;29;20147;-60
2023/04/18 09:16:21;;;;;;;9.07;3.10;;;;;;;;;;4930456;29;20051;-60
2023/04/18 09:19:09;;;;;;;8.20;2.55;;;;;;;;;;4933891;29;20134;-60
2023/04/18 09:21:39;;;;;;;6.88;2.50;;;;;;;;;;4932068;29;20047;-60
2023/04/18 09:24:19;;;;;;;7.60;3.05;;;;;;;;;;4933488;29;20148;-60
2023/04/18 09:26:50;;;;;;;9.23;2.58;;;;;;;;;;4927916;28;20494;-60
2023/04/18 09:29:21;;;;;;;4.43;2.78;;;;;;;;;;4929023;29;20473;-61
2023/04/18 09:32:02;;;;;;;6.90;2.13;;;;;;;;;;4933419;29;20055;-61
2023/04/18 09:34:32;;;;;;;5.15;2.00;;;;;;;;;;4928209;29;20083;-61
2023/04/18 09:37:08;;;;;;;6.05;2.42;;;;;;;;;;4921376;28;20082;-61
2023/04/18 09:39:37;;;;;;;10.63;2.53;;;;;;;;;;4933044;29;20493;-61
2023/04/18 09:42:09;;;;;;;6.15;2.53;;;;;;;;;;4929969;29;20081;-60
2023/04/18 09:44:37;;;;;;;8.07;2.40;;;;;;;;;;4933485;29;20280;-61
2023/04/18 09:47:07;;;;;;;7.75;2.30;;;;;;;;;;4931284;29;20307;-60
2023/04/18 09:49:35;;;;;;;11.18;3.38;;;;;;;;;;4932777;29;20501;-60
2023/04/18 09:52:07;;;;;;;6.93;2.40;;;;;;;;;;4935118;29;20131;-62
2023/04/18 09:54:36;;;;;;;12.35;2.72;;;;;;;;;;4931355;29;20051;-60
2023/04/18 09:57:06;;;;;;;5.82;2.47;;;;;;;;;;4935179;28;20137;-61
2023/04/18 09:59:42;;;;;;;4.43;2.42;;;;;;;;;;4934048;29;20064;-61
2023/04/18 10:02:15;;;;;;;5.40;2.20;;;;;;;;;;4932531;29;20131;-61
2023/04/18 10:04:44;;;;;;;5.68;2.53;;;;;;;;;;4932138;29;20059;-61
2023/04/18 10:07:13;;;;;;;6.10;2.67;;;;;;;;;;4931580;28;20058;-60
2023/04/18 10:09:43;;;;;;;4.32;2.15;;;;;;;;;;4930071;29;20689;-60
2023/04/18 10:12:12;;;;;;;4.05;1.60;;;;;;;;;;4934608;29;20047;-61
2023/04/18 10:14:43;;;;;;;5.18;2.20;;;;;;;;;;4930829;29;20047;-62
2023/04/18 10:17:11;;;;;;;14.05;2.33;;;;;;;;;;4929399;28;20165;-60
2023/04/18 10:19:40;;;;;;;3.45;2.53;;;;;;;;;;4930562;29;20074;-60
2023/04/18 10:22:09;;;;;;;8.45;2.38;;;;;;;;;;4930762;29;20043;-60
2023/04/18 10:24:48;;;;;;;9.20;2.63;;;;;;;;;;4934751;29;20560;-61
2023/04/18 10:27:16;;;;;;;6.10;3.05;;;;;;;;;;4929797;29;20056;-60
2023/04/18 10:29:50;;;;;;;6.82;2.55;;;;;;;;;;4931370;29;20341;-60
2023/04/18 10:32:19;;;;;;;7.47;2.83;;;;;;;;;;4934027;29;20058;-60
2023/04/18 10:34:47;;;;;;;4.78;2.20;;;;;;;;;;4929799;29;20079;-61
2023/04/18 10:37:17;;;;;;;7.13;2.67;;;;;;;;;;4932455;28;20056;-60
2023/04/18 10:39:50;;;;;;;6.75;2.83;;;;;;;;;;4930937;29;20078;-61
2023/04/18 10:42:19;;;;;;;4.18;2.33;;;;;;;;;;4934681;29;20043;-61
2023/04/18 10:45:02;;;;;;;5.53;2.03;;;;;;;;;;4934545;29;20039;-60
2023/04/18 10:47:31;;;;;;;3.47;2.17;;;;;;;;;;4929353;29;20059;-61
2023/04/18 10:50:03;;;;;;;7.30;2.28;;;;;;;;;;4937296;29;20039;-60
2023/04/18 10:52:34;;;;;;;8.82;2.10;;;;;;;;;;4934669;29;20047;-60
2023/04/18 10:55:15;;;;;;;4.35;2.13;;;;;;;;;;4928290;29;20055;-61
2023/04/18 10:57:44;;;;;;;6.20;2.00;;;;;;;;;;4935310;29;20123;-60
2023/04/18 11:00:14;;;;;;;7.07;2.65;;;;;;;;;;4927350;29;20055;-62
2023/04/18 11:02:50;;;;;;;7.07;2.15;;;;;;;;;;4939977;29;20047;-60
2023/04/18 11:05:23;;;;;;;6.22;2.53;;;;;;;;;;4934392;29;20055;-60
2023/04/18 11:07:52;;;;;;;3.65;1.75;;;;;;;;;;4934860;28;20063;-59
2023/04/18 11:10:21;;;;;;;4.15;1.88;;;;;;;;;;4937095;29;20076;-60
2023/04/18 11:12:49;;;;;;;6.47;2.72;;;;;;;;;;4938219;29;20074;-60
2023/04/18 11:15:20;;;;;;;5.65;1.98;;;;;;;;;;4935185;29;20051;-60
2023/04/18 11:17:57;;;;;;;2.67;2.00;;;;;;;;;;4938577;29;20116;-60
2023/04/18 11:20:26;;;;;;;4.38;1.95;;;;;;;;;;4939327;29;20051;-59
2023/04/18 11:22:55;;;;;;;8.55;2.42;;;;;;;;;;4936033;29;20051;-60
2023/04/18 11:25:24;;;;;;;2.30;1.30;;;;;;;;;;4940676;28;20473;-60
2023/04/18 11:27:53;;;;;;;3.55;1.52;;;;;;;;;;4934323;29;20044;-61
2023/04/18 11:30:22;;;;;;;3.45;2.03;;;;;;;;;;4933702;29;20130;-61
2023/04/18 11:32:52;;;;;;;4.68;2.00;;;;;;;;;;4935251;29;20130;-59
2023/04/18 11:35:22;;;;;;;4.68;2.35;;;;;;;;;;4937309;28;20051;-60
2023/04/18 11:37:51;;;;;;;6.88;2.55;;;;;;;;;;4935263;29;20050;-59
2023/04/18 11:40:19;;;;;;;4.65;1.88;;;;;;;;;;4935784;29;20052;-60
2023/04/18 11:42:47;;;;;;;4.40;2.10;;;;;;;;;;4935971;29;20134;-60
2023/04/18 11:45:16;;;;;;;6.20;3.00;;;;;;;;;;4935606;29;20507;-60
2023/04/18 11:47:45;;;;;;;4.20;1.65;;;;;;;;;;4934288;29;20817;-59
2023/04/18 11:50:14;;;;;;;6.30;1.58;;;;;;;;;;4936237;29;20047;-59
2023/04/18 11:52:43;;;;;;;6.13;1.88;;;;;;;;;;4931697;29;20509;-60
2023/04/18 11:55:13;;;;;;;6.85;2.30;;;;;;;;;;4931614;29;20040;-59
2023/04/18 11:57:41;;;;;;;3.72;1.90;;;;;;;;;;4934120;29;20480;-59
2023/04/18 12:00:11;;;;;;;5.38;2.55;;;;;;;;;;4935055;29;20048;-60
2023/04/18 12:02:41;;;;;;;4.68;2.13;;;;;;;;;;4933595;29;20052;-59
2023/04/18 12:05:10;;;;;;;7.20;3.38;;;;;;;;;;4934508;29;20288;-59
2023/04/18 12:07:40;;;;;;;2.92;1.77;;;;;;;;;;4932569;29;20109;-59
2023/04/18 12:10:23;;;;;;;2.92;1.20;;;;;;;;;;4933412;29;20485;-61
2023/04/18 12:12:52;;;;;;;4.68;1.80;;;;;;;;;;4935349;29;20124;-59
2023/04/18 12:15:22;;;;;;;5.72;2.30;;;;;;;;;;4927222;29;20049;-62
2023/04/18 12:17:51;;;;;;;3.55;1.63;;;;;;;;;;4932911;29;20465;-60
2023/04/18 12:20:23;;;;;;;2.25;0.93;;;;;;;;;;4938924;29;20104;-60
2023/04/18 12:22:53;;;;;;;2.33;1.25;;;;;;;;;;4928172;29;20066;-59
2023/04/18 12:25:25;;;;;;;4.30;1.60;;;;;;;;;;4935113;29;20292;-59
2023/04/18 12:27:56;;;;;;;3.63;1.75;;;;;;;;;;4931493;29;20052;-59
2023/04/18 12:30:26;;;;;;;1.85;1.08;;;;;;;;;;4936741;29;20050;-60
2023/04/18 12:32:55;;;;;;;2.60;1.08;;;;;;;;;;4936645;29;20048;-59
2023/04/18 12:35:24;;;;;;;3.28;2.20;;;;;;;;;;4933622;28;20043;-60
2023/04/18 12:37:53;;;;;;;2.95;1.60;;;;;;;;;;4932094;29;20054;-60
2023/04/18 12:40:22;;;;;;;2.83;1.55;;;;;;;;;;4935054;29;20047;-59
2023/04/18 12:42:52;;;;;;;5.40;1.80;;;;;;;;;;4935174;29;20133;-61
2023/04/18 12:45:21;;;;;;;4.30;2.13;;;;;;;;;;4930405;28;20713;-62
2023/04/18 12:47:51;;;;;;;3.55;1.50;;;;;;;;;;4934308;29;20066;-62
2023/04/18 12:50:20;;;;;;;2.80;1.25;;;;;;;;;;4932057;29;20079;-60
2023/04/18 12:52:50;;;;;;;3.45;1.65;;;;;;;;;;4937330;29;20064;-60
2023/04/18 12:55:18;;;;;;;5.57;1.27;;;;;;;;;;4934362;29;20047;-60
2023/04/18 12:57:46;;;;;;;4.75;1.75;;;;;;;;;;4932468;29;20620;-61
2023/04/18 13:00:16;;;;;;;2.72;1.42;;;;;;;;;;4931153;29;20421;-60
2023/04/18 13:02:45;;;;;;;2.22;1.25;;;;;;;;;;4934510;29;20103;-60
2023/04/18 13:05:14;;;;;;;3.80;1.75;;;;;;;;;;4930343;29;20059;-60
2023/04/18 13:07:45;;;;;;;1.55;0.80;;;;;;;;;;4930372;29;20047;-60
2023/04/18 13:10:14;;;;;;;5.80;1.92;;;;;;;;;;4936423;29;20048;-61
2023/04/18 13:12:42;;;;;;;5.43;0.98;;;;;;;;;;4935271;29;20396;-61
2023/04/18 13:15:11;;;;;;;2.67;1.30;;;;;;;;;;4929726;29;20067;-61
2023/04/18 13:17:41;;;;;;;2.45;1.48;;;;;;;;;;4930847;28;20058;-60
2023/04/18 13:20:11;;;;;;;2.35;1.30;;;;;;;;;;4938940;29;20074;-60
2023/04/18 13:22:40;;;;;;;2.17;0.80;;;;;;;;;;4929862;29;20075;-60
2023/04/18 13:25:10;;;;;;;4.65;1.42;;;;;;;;;;4932437;29;20050;-60
2023/04/18 13:27:38;;;;;;;2.90;0.98;;;;;;;;;;4929733;29;20081;-60
2023/04/18 13:30:11;;;;;;;2.25;1.10;;;;;;;;;;4931263;29;20571;-59
2023/04/18 13:32:42;;;;;;;4.28;1.40;;;;;;;;;;4930617;29;20154;-60
2023/04/18 13:35:11;;;;;;;3.28;0.90;;;;;;;;;;4929957;29;21238;-61
2023/04/18 13:37:40;;;;;;;4.30;1.88;;;;;;;;;;4925795;29;20040;-59
2023/04/18 13:40:08;;;;;;;2.95;1.40;;;;;;;;;;4934454;29;20135;-60
2023/04/18 13:42:37;;;;;;;1.52;0.80;;;;;;;;;;4932078;29;20051;-60
2023/04/18 13:45:06;;;;;;;4.65;1.42;;;;;;;;;;4927944;29;20083;-62
2023/04/18 13:47:35;;;;;;;3.60;1.10;;;;;;;;;;4927066;28;20055;-60
2023/04/18 13:50:05;;;;;;;2.17;0.82;;;;;;;;;;4930775;29;20136;-61
2023/04/18 13:52:34;;;;;;;2.45;1.30;;;;;;;;;;4929517;28;20054;-60
2023/04/18 13:55:02;;;;;;;1.92;0.95;;;;;;;;;;4935301;29;20047;-60
2023/04/18 13:57:32;;;;;;;3.75;1.48;;;;;;;;;;4928988;29;20881;-59
2023/04/18 14:00:01;;;;;;;2.83;0.95;;;;;;;;;;4935330;29;20381;-59
2023/04/18 14:02:29;;;;;;;3.40;0.88;;;;;;;;;;4931026;29;20055;-60
2023/04/18 14:04:58;;;;;;;3.25;0.93;;;;;;;;;;4933204;29;20051;-61
2023/04/18 14:07:28;;;;;;;4.00;1.17;;;;;;;;;;4932070;29;20312;-60
2023/04/18 14:09:57;;;;;;;1.48;0.93;;;;;;;;;;4935012;29;20059;-60
2023/04/18 14:12:25;;;;;;;1.52;0.82;;;;;;;;;;4934378;29;20150;-60
2023/04/18 14:14:54;;;;;;;1.25;0.73;;;;;;;;;;4928205;29;20053;-60
2023/04/18 14:17:22;;;;;;;1.33;0.85;;;;;;;;;;4934826;28;20066;-60
2023/04/18 14:19:50;;;;;;;3.95;1.60;;;;;;;;;;4933628;29;20131;-60
2023/04/18 14:22:19;;;;;;;1.73;0.90;;;;;;;;;;4929901;29;20048;-60
2023/04/18 14:24:51;;;;;;;3.67;1.27;;;;;;;;;;4929547;29;20043;-60
2023/04/18 14:27:19;;;;;;;2.83;1.60;;;;;;;;;;4931619;29;20043;-60
2023/04/18 14:29:48;;;;;;;0.70;0.70;;;;;;;;;;4928286;29;20152;-59
2023/04/18 14:32:16;;;;;;;1.95;0.85;;;;;;;;;;4933333;29;20497;-59
2023/04/18 14:34:45;;;;;;;3.58;1.20;;;;;;;;;;4930053;29;20142;-60
2023/04/18 14:37:13;;;;;;;3.80;1.02;;;;;;;;;;4926896;29;20507;-61
2023/04/18 14:39:43;;;;;;;2.22;1.00;;;;;;;;;;4933291;29;20052;-59
2023/04/18 14:42:13;;;;;;;5.30;1.75;;;;;;;;;;4929955;29;20316;-60
2023/04/18 14:44:41;;;;;;;2.63;1.42;;;;;;;;;;4930422;29;20047;-59
2023/04/18 14:47:10;;;;;;;2.53;1.33;;;;;;;;;;4933006;29;20048;-60
2023/04/18 14:49:38;;;;;;;4.32;1.75;;;;;;;;;;4925880;29;20048;-60
2023/04/18 14:52:07;;;;;;;1.20;1.05;;;;;;;;;;4934897;29;20055;-60
2023/04/18 14:54:35;;;;;;;2.35;1.05;;;;;;;;;;4932178;29;20138;-59